Time;durP1;ratioP1;P1;durP2;ratioP2;P2;SDS_P1;SDS_P2;PMS_P1;PMS_P2;Temp;Humidity;BMP_temperature;BMP_pressure;BME280_temperature;BME280_humidity;BME280_pressure;Samples;Min_cycle;Max_cycle;Signal;HPM_P1;HPM_P2
2022/01/07 00:01:05;;;;;;;6.18;2.50;;;1.90;82.60;;;;;;5003957;28;20046;-72
2022/01/07 00:03:40;;;;;;;7.38;2.90;;;1.80;82.70;;;;;;5007230;28;20569;-70
2022/01/07 00:06:08;;;;;;;8.63;3.85;;;1.80;82.80;;;;;;4927941;28;21499;-73
2022/01/07 00:08:51;;;;;;;6.31;2.86;;;1.80;83.00;;;;;;594888;28;10150321;-69
2022/01/07 00:11:24;;;;;;;5.63;3.10;;;1.80;83.10;;;;;;5007718;28;20447;-71
2022/01/07 00:13:52;;;;;;;6.75;3.53;;;1.80;82.90;;;;;;5009022;28;20535;-70
2022/01/07 00:16:19;;;;;;;7.50;3.40;;;1.70;82.90;;;;;;5007602;28;20483;-73
2022/01/07 00:18:52;;;;;;;6.18;2.35;;;1.80;83.00;;;;;;5008820;28;20167;-71
2022/01/07 00:21:21;;;;;;;5.22;2.78;;;1.80;82.90;;;;;;5008388;28;20479;-70
2022/01/07 00:23:48;;;;;;;5.85;3.40;;;1.90;82.70;;;;;;5007723;28;20041;-72
2022/01/07 00:26:15;;;;;;;8.93;3.42;;;1.80;82.50;;;;;;5008238;28;20045;-72
2022/01/07 00:28:42;;;;;;;5.47;3.17;;;1.80;82.40;;;;;;5007915;28;20046;-71
2022/01/07 00:31:09;;;;;;;6.38;3.38;;;1.80;82.30;;;;;;4997868;28;20045;-71
2022/01/07 00:33:36;;;;;;;4.75;2.72;;;1.80;82.20;;;;;;5007152;28;20057;-71
2022/01/07 00:36:03;;;;;;;5.35;2.05;;;1.70;82.00;;;;;;5009552;28;20536;-70
2022/01/07 00:38:34;;;;;;;6.07;1.95;;;1.70;82.00;;;;;;5011404;28;20068;-70
2022/01/07 00:41:01;;;;;;;7.95;2.75;;;1.70;82.00;;;;;;5011709;28;20165;-69
2022/01/07 00:43:29;;;;;;;7.35;2.72;;;1.70;82.10;;;;;;5012358;28;20485;-70
2022/01/07 00:45:56;;;;;;;4.70;2.28;;;1.70;82.00;;;;;;5011412;28;20468;-72
2022/01/07 00:48:23;;;;;;;4.43;2.22;;;1.70;81.80;;;;;;5012288;28;20073;-70
2022/01/07 00:50:50;;;;;;;4.60;2.35;;;1.60;81.80;;;;;;5012356;28;20045;-69
2022/01/07 00:53:18;;;;;;;4.25;2.00;;;1.60;81.90;;;;;;5012240;28;20046;-71
2022/01/07 00:55:46;;;;;;;7.53;3.42;;;1.60;82.00;;;;;;5012653;28;20075;-71
2022/01/07 00:58:13;;;;;;;5.70;2.55;;;1.60;82.10;;;;;;5012143;28;20121;-71
2022/01/07 01:00:41;;;;;;;6.05;2.55;;;1.60;82.30;;;;;;5010013;28;20432;-70
2022/01/07 01:03:08;;;;;;;6.13;2.75;;;1.60;82.20;;;;;;5012151;28;20045;-71
2022/01/07 01:05:36;;;;;;;7.72;3.13;;;1.60;82.40;;;;;;5012156;28;20046;-72
2022/01/07 01:08:03;;;;;;;7.68;3.80;;;1.70;82.50;;;;;;5010631;28;20052;-72
2022/01/07 01:10:30;;;;;;;9.20;3.58;;;1.70;82.70;;;;;;5010075;28;20041;-71
2022/01/07 01:12:58;;;;;;;6.85;3.15;;;1.60;82.70;;;;;;5010039;28;20060;-72
2022/01/07 01:15:27;;;;;;;6.95;2.45;;;1.60;82.80;;;;;;5011532;28;20052;-70
2022/01/07 01:17:56;;;;;;;5.97;2.70;;;1.60;83.00;;;;;;5009729;28;20650;-70
2022/01/07 01:20:23;;;;;;;5.22;2.13;;;1.60;82.90;;;;;;5009297;28;20488;-70
2022/01/07 01:22:50;;;;;;;4.32;2.67;;;1.60;82.80;;;;;;5010696;28;20053;-71
2022/01/07 01:25:17;;;;;;;6.70;2.22;;;1.60;82.90;;;;;;5009633;28;20160;-71
2022/01/07 01:27:45;;;;;;;7.07;2.10;;;1.60;83.00;;;;;;5009838;28;20057;-71
2022/01/07 01:30:17;;;;;;;6.25;2.72;;;1.60;82.90;;;;;;5009597;28;20040;-70
2022/01/07 01:32:45;;;;;;;6.80;2.80;;;1.50;83.00;;;;;;5010363;28;20123;-69
2022/01/07 01:35:13;;;;;;;5.80;2.78;;;1.50;83.10;;;;;;5009133;28;20045;-71
2022/01/07 01:37:40;;;;;;;7.15;2.70;;;1.50;83.10;;;;;;5010259;28;20045;-70
2022/01/07 01:40:09;;;;;;;4.82;2.70;;;1.50;83.00;;;;;;5009991;28;20403;-70
2022/01/07 01:42:37;;;;;;;4.97;2.72;;;1.50;83.00;;;;;;4991173;28;20053;-70
2022/01/07 01:45:05;;;;;;;5.40;2.38;;;1.50;83.00;;;;;;5010177;28;20125;-71
2022/01/07 01:47:33;;;;;;;7.82;2.95;;;1.50;83.00;;;;;;5011559;28;20042;-71
2022/01/07 01:50:00;;;;;;;7.20;2.72;;;1.50;83.00;;;;;;5010225;28;20049;-71
2022/01/07 01:52:28;;;;;;;5.47;2.70;;;1.50;83.10;;;;;;5011743;28;20045;-70
2022/01/07 01:54:55;;;;;;;8.32;2.83;;;1.50;83.10;;;;;;5009873;28;20053;-71
2022/01/07 01:57:22;;;;;;;6.05;3.10;;;1.50;83.20;;;;;;5011909;28;20042;-70
2022/01/07 01:59:49;;;;;;;8.02;2.92;;;1.50;83.10;;;;;;5011002;28;20041;-70
2022/01/07 02:02:16;;;;;;;5.80;2.17;;;1.50;83.10;;;;;;5006712;28;20345;-71
2022/01/07 02:04:44;;;;;;;7.53;2.65;;;1.50;82.90;;;;;;5010654;28;20050;-71
2022/01/07 02:07:12;;;;;;;3.03;1.98;;;1.50;82.90;;;;;;5010748;28;20042;-71
2022/01/07 02:09:39;;;;;;;5.57;2.45;;;1.50;83.00;;;;;;5009676;28;20217;-71
2022/01/07 02:12:09;;;;;;;7.00;3.05;;;1.50;82.90;;;;;;5010093;28;20054;-70
2022/01/07 02:14:36;;;;;;;6.78;2.55;;;1.40;82.60;;;;;;5010912;28;20385;-70
2022/01/07 02:17:08;;;;;;;6.05;3.05;;;1.40;82.60;;;;;;5009960;28;20125;-71
2022/01/07 02:19:37;;;;;;;6.35;2.90;;;1.40;82.40;;;;;;5008359;28;20052;-71
2022/01/07 02:22:05;;;;;;;7.10;2.55;;;1.40;82.40;;;;;;5010714;28;20056;-72
2022/01/07 02:24:34;;;;;;;4.90;1.98;;;1.40;82.30;;;;;;5010214;28;20034;-71
2022/01/07 02:27:01;;;;;;;5.93;2.17;;;1.30;82.30;;;;;;5009122;28;20413;-71
2022/01/07 02:29:30;;;;;;;3.67;2.17;;;1.40;82.20;;;;;;5010370;28;20050;-70
2022/01/07 02:31:58;;;;;;;4.93;2.33;;;1.30;82.10;;;;;;5010245;28;20053;-70
2022/01/07 02:34:24;;;;;;;4.80;2.33;;;1.30;82.10;;;;;;5009885;28;20045;-71
2022/01/07 02:36:53;;;;;;;5.22;2.08;;;1.30;82.20;;;;;;5009424;28;20042;-70
2022/01/07 02:39:26;;;;;;;6.85;2.58;;;1.30;82.00;;;;;;5010415;28;20088;-70
2022/01/07 02:41:53;;;;;;;5.95;2.00;;;1.30;81.90;;;;;;5009632;28;20519;-69
2022/01/07 02:44:20;;;;;;;5.47;2.38;;;1.30;82.00;;;;;;5008969;28;20064;-71
2022/01/07 02:46:47;;;;;;;6.57;2.88;;;1.30;81.90;;;;;;5008327;28;20056;-71
2022/01/07 02:49:17;;;;;;;6.57;2.20;;;1.30;81.90;;;;;;5008177;28;20045;-71
2022/01/07 02:51:45;;;;;;;5.03;2.35;;;1.30;81.90;;;;;;5008068;28;20042;-71
2022/01/07 02:54:14;;;;;;;3.67;1.73;;;1.30;81.90;;;;;;5008106;28;20034;-71
2022/01/07 02:56:41;;;;;;;3.28;1.70;;;1.30;82.00;;;;;;5008758;28;20355;-72
2022/01/07 02:59:12;;;;;;;4.88;1.70;;;1.30;82.10;;;;;;5008287;28;20038;-71
2022/01/07 03:01:40;;;;;;;3.45;1.55;;;1.30;82.00;;;;;;5005390;28;20046;-71
2022/01/07 03:04:08;;;;;;;4.25;2.30;;;1.40;81.90;;;;;;5008563;28;20052;-72
2022/01/07 03:06:36;;;;;;;3.95;2.05;;;1.30;81.80;;;;;;5007180;28;20144;-69
2022/01/07 03:09:05;;;;;;;6.60;2.08;;;1.30;81.70;;;;;;5007066;28;20046;-71
2022/01/07 03:11:33;;;;;;;4.85;2.03;;;1.30;81.80;;;;;;5007658;28;20061;-70
2022/01/07 03:14:00;;;;;;;4.80;1.88;;;1.40;81.80;;;;;;5007827;28;20037;-71
2022/01/07 03:16:29;;;;;;;3.67;2.00;;;1.40;81.90;;;;;;5008184;28;20123;-71
2022/01/07 03:18:56;;;;;;;5.28;2.40;;;1.40;81.80;;;;;;5005253;28;20141;-72
2022/01/07 03:21:23;;;;;;;4.95;2.30;;;1.40;81.90;;;;;;5007813;28;20042;-73
2022/01/07 03:23:50;;;;;;;3.15;1.80;;;1.30;82.00;;;;;;5007844;28;20054;-69
2022/01/07 03:26:16;;;;;;;4.95;2.55;;;1.40;82.10;;;;;;5009442;28;20042;-72
2022/01/07 03:28:46;;;;;;;4.75;2.10;;;1.40;82.20;;;;;;5009284;28;20050;-70
2022/01/07 03:31:13;;;;;;;4.38;1.90;;;1.40;82.10;;;;;;5007845;28;20466;-69
2022/01/07 03:33:40;;;;;;;7.15;1.50;;;1.40;82.00;;;;;;5008204;28;20046;-70
2022/01/07 03:36:06;;;;;;;5.22;2.28;;;1.40;82.00;;;;;;5008591;28;20046;-72
2022/01/07 03:38:34;;;;;;;4.07;2.13;;;1.40;82.10;;;;;;5009112;28;20415;-69
2022/01/07 03:41:01;;;;;;;6.03;2.50;;;1.40;82.10;;;;;;5008293;28;20333;-71
2022/01/07 03:43:28;;;;;;;3.05;1.40;;;1.40;82.10;;;;;;5009447;28;20133;-70
2022/01/07 03:45:57;;;;;;;3.50;1.65;;;1.40;82.10;;;;;;5009475;28;20592;-71
2022/01/07 03:48:23;;;;;;;4.25;1.70;;;1.30;82.10;;;;;;5008270;28;20055;-70
2022/01/07 03:50:51;;;;;;;3.60;2.60;;;1.30;82.20;;;;;;5008451;28;20053;-70
2022/01/07 03:53:18;;;;;;;2.75;1.70;;;1.30;82.30;;;;;;5008644;28;20046;-69
2022/01/07 03:55:45;;;;;;;6.30;2.50;;;1.40;82.30;;;;;;5009289;28;20042;-70
2022/01/07 03:58:12;;;;;;;4.25;1.98;;;1.40;82.40;;;;;;5008191;28;20038;-70
2022/01/07 04:00:41;;;;;;;5.55;2.63;;;1.40;82.40;;;;;;5006672;28;20057;-71
2022/01/07 04:03:12;;;;;;;8.32;3.17;;;1.40;82.30;;;;;;5008796;28;20124;-71
2022/01/07 04:05:39;;;;;;;6.72;2.30;;;1.40;82.50;;;;;;5007839;28;20069;-70
2022/01/07 04:08:07;;;;;;;4.57;2.30;;;1.40;82.50;;;;;;5008363;28;20052;-70
2022/01/07 04:10:34;;;;;;;6.38;3.03;;;1.40;82.50;;;;;;5009101;28;20046;-70
2022/01/07 04:13:01;;;;;;;5.78;2.35;;;1.50;82.40;;;;;;5012327;28;20069;-70
2022/01/07 04:15:30;;;;;;;6.13;2.53;;;1.50;82.40;;;;;;5012827;28;20108;-71
2022/01/07 04:17:57;;;;;;;5.78;2.63;;;1.40;82.50;;;;;;5012660;28;20038;-71
2022/01/07 04:20:28;;;;;;;6.13;2.58;;;1.40;82.70;;;;;;5012916;28;20385;-71
2022/01/07 04:22:55;;;;;;;;;;;1.50;82.70;;;;;;5014005;28;20384;-72
2022/01/07 04:25:23;;;;;;;5.35;2.30;;;1.50;82.80;;;;;;5011979;28;19928;-72
2022/01/07 04:27:52;;;;;;;5.68;3.08;;;1.50;82.60;;;;;;5010801;28;20505;-70
2022/01/07 04:30:20;;;;;;;5.57;2.30;;;1.50;82.60;;;;;;5011182;28;20041;-71
2022/01/07 04:32:48;;;;;;;5.55;2.55;;;1.50;82.50;;;;;;5011359;28;20045;-72
2022/01/07 04:35:16;;;;;;;6.22;2.53;;;1.50;82.40;;;;;;5010469;28;20795;-71
2022/01/07 04:37:46;;;;;;;4.97;2.67;;;1.50;82.50;;;;;;5010959;28;20048;-72
2022/01/07 04:40:15;;;;;;;3.13;1.60;;;1.50;82.40;;;;;;5010852;28;20042;-70
2022/01/07 04:42:42;;;;;;;8.02;2.20;;;1.50;82.60;;;;;;5010425;28;20042;-72
2022/01/07 04:45:10;;;;;;;5.63;2.58;;;1.50;82.80;;;;;;5009885;28;20046;-73
2022/01/07 04:47:38;;;;;;;4.95;2.47;;;1.50;82.80;;;;;;5010614;28;20038;-70
2022/01/07 04:50:06;;;;;;;5.03;2.63;;;1.50;82.80;;;;;;5010121;28;20052;-72
2022/01/07 04:52:33;;;;;;;6.25;2.63;;;1.50;82.80;;;;;;5010269;28;20357;-70
2022/01/07 04:55:02;;;;;;;4.80;2.15;;;1.50;82.80;;;;;;5009824;28;20241;-72
2022/01/07 04:57:29;;;;;;;6.00;2.25;;;1.60;82.80;;;;;;5010408;28;20125;-71
2022/01/07 04:59:55;;;;;;;6.47;2.80;;;1.50;82.80;;;;;;5009824;28;20045;-72
2022/01/07 05:02:22;;;;;;;6.03;2.30;;;1.50;82.90;;;;;;5008621;28;20048;-73
2022/01/07 05:04:49;;;;;;;7.07;3.03;;;1.50;82.80;;;;;;5011851;28;20042;-71
2022/01/07 05:07:17;;;;;;;8.57;2.63;;;1.60;82.80;;;;;;5009328;28;20042;-71
2022/01/07 05:09:44;;;;;;;6.70;2.50;;;1.50;82.80;;;;;;5008879;28;20038;-70
2022/01/07 05:12:13;;;;;;;7.85;3.20;;;1.50;82.90;;;;;;5011300;28;20397;-71
2022/01/07 05:14:40;;;;;;;6.20;2.92;;;1.60;83.00;;;;;;5012154;28;20049;-72
2022/01/07 05:17:07;;;;;;;4.55;2.70;;;1.50;83.00;;;;;;5009211;28;20042;-71
2022/01/07 05:19:34;;;;;;;5.25;2.83;;;1.60;83.00;;;;;;5011625;28;20050;-70
2022/01/07 05:22:00;;;;;;;8.60;3.28;;;1.60;83.00;;;;;;5011588;28;20042;-71
2022/01/07 05:24:29;;;;;;;6.43;2.88;;;1.60;83.00;;;;;;5010797;28;20393;-70
2022/01/07 05:26:56;;;;;;;6.20;2.90;;;1.60;83.00;;;;;;5011104;28;20042;-71
2022/01/07 05:29:25;;;;;;;9.02;2.72;;;1.60;83.10;;;;;;5010424;28;20038;-71
2022/01/07 05:31:52;;;;;;;6.10;2.67;;;1.60;83.10;;;;;;5010703;28;20034;-70
2022/01/07 05:34:19;;;;;;;6.30;3.00;;;1.60;83.10;;;;;;5010941;28;20044;-70
2022/01/07 05:36:46;;;;;;;6.85;3.05;;;1.60;83.00;;;;;;5012098;28;20510;-69
2022/01/07 05:39:13;;;;;;;7.00;2.53;;;1.60;83.00;;;;;;5011034;28;20487;-71
2022/01/07 05:41:40;;;;;;;4.22;2.30;;;1.60;83.00;;;;;;5010606;28;20089;-69
2022/01/07 05:44:07;;;;;;;5.30;2.40;;;1.50;83.00;;;;;;5010124;28;20403;-70
2022/01/07 05:46:35;;;;;;;6.05;2.78;;;1.60;83.00;;;;;;5011766;28;20052;-69
2022/01/07 05:49:02;;;;;;;7.47;2.95;;;1.50;83.00;;;;;;5012267;28;20042;-71
2022/01/07 05:51:29;;;;;;;5.15;2.40;;;1.50;83.20;;;;;;5010831;28;20046;-71
2022/01/07 05:53:56;;;;;;;8.60;3.30;;;1.60;83.20;;;;;;5011390;28;20089;-70
2022/01/07 05:56:23;;;;;;;7.53;3.22;;;1.60;83.20;;;;;;5011434;28;20044;-71
2022/01/07 05:58:50;;;;;;;6.22;3.40;;;1.60;83.30;;;;;;5010268;28;20042;-71
2022/01/07 06:01:17;;;;;;;9.77;2.60;;;1.60;83.20;;;;;;5007664;28;20042;-69
2022/01/07 06:03:46;;;;;;;5.50;3.03;;;1.60;83.30;;;;;;5011140;28;20125;-72
2022/01/07 06:06:13;;;;;;;12.50;2.90;;;1.70;83.30;;;;;;5009028;28;20565;-70
2022/01/07 06:08:40;;;;;;;6.72;2.67;;;1.70;83.20;;;;;;5008824;28;20121;-72
2022/01/07 06:11:07;;;;;;;6.45;2.92;;;1.70;83.40;;;;;;5009335;28;20053;-71
2022/01/07 06:13:34;;;;;;;4.95;2.58;;;1.70;83.40;;;;;;5009299;28;20068;-70
2022/01/07 06:16:01;;;;;;;4.97;2.72;;;1.70;83.40;;;;;;5009851;28;20404;-69
2022/01/07 06:18:28;;;;;;;7.00;2.85;;;1.70;83.50;;;;;;5008994;28;20092;-70
2022/01/07 06:20:57;;;;;;;6.68;3.05;;;1.70;83.50;;;;;;5010624;28;20045;-70
2022/01/07 06:23:24;;;;;;;5.38;2.55;;;1.70;83.50;;;;;;5009160;28;20046;-72
2022/01/07 06:25:51;;;;;;;7.45;2.78;;;1.70;83.70;;;;;;5007705;28;20048;-72
2022/01/07 06:28:18;;;;;;;3.95;2.30;;;1.70;83.70;;;;;;5009255;28;20120;-71
2022/01/07 06:30:46;;;;;;;6.38;2.92;;;1.70;83.70;;;;;;5008869;28;20046;-71
2022/01/07 06:33:13;;;;;;;6.78;3.03;;;1.70;83.90;;;;;;5009114;28;20058;-73
2022/01/07 06:35:40;;;;;;;4.97;2.55;;;1.70;83.80;;;;;;5007757;28;20050;-72
2022/01/07 06:38:08;;;;;;;4.60;2.40;;;1.80;83.80;;;;;;5009005;28;20096;-72
2022/01/07 06:40:35;;;;;;;5.13;2.58;;;1.80;83.90;;;;;;5008298;28;20140;-71
2022/01/07 06:43:02;;;;;;;5.50;2.60;;;1.80;83.90;;;;;;5008222;28;20266;-73
2022/01/07 06:45:29;;;;;;;9.30;2.97;;;1.80;83.80;;;;;;5010959;28;20042;-70
2022/01/07 06:47:56;;;;;;;6.63;3.08;;;1.90;83.90;;;;;;5010611;28;20514;-69
2022/01/07 06:50:23;;;;;;;7.80;2.90;;;1.90;84.00;;;;;;5010211;28;20038;-73
2022/01/07 06:52:50;;;;;;;8.45;2.60;;;1.90;84.00;;;;;;5009553;28;20057;-71
2022/01/07 06:55:19;;;;;;;5.90;1.98;;;1.90;84.10;;;;;;5010690;28;20411;-71
2022/01/07 06:57:45;;;;;;;4.93;2.67;;;2.00;84.10;;;;;;5009205;28;20045;-71
2022/01/07 07:00:13;;;;;;;4.78;2.28;;;2.00;84.20;;;;;;5007619;28;20048;-71
2022/01/07 07:02:41;;;;;;;6.32;2.25;;;2.00;84.20;;;;;;5009525;28;20046;-71
2022/01/07 07:05:08;;;;;;;5.57;2.33;;;2.00;84.20;;;;;;5008708;28;20046;-71
2022/01/07 07:07:35;;;;;;;7.13;2.83;;;2.10;84.30;;;;;;5007783;28;20041;-71
2022/01/07 07:10:03;;;;;;;7.22;2.15;;;2.10;84.30;;;;;;5007928;28;20412;-72
2022/01/07 07:12:31;;;;;;;4.75;1.90;;;2.20;84.30;;;;;;5008931;28;20058;-71
2022/01/07 07:14:58;;;;;;;5.63;2.63;;;2.10;84.50;;;;;;5009846;28;20052;-72
2022/01/07 07:17:25;;;;;;;5.18;2.33;;;2.20;84.60;;;;;;5009298;28;20056;-72
2022/01/07 07:19:52;;;;;;;10.02;2.90;;;2.20;84.50;;;;;;5009393;28;20539;-71
2022/01/07 07:22:19;;;;;;;5.00;1.83;;;2.20;84.50;;;;;;5008862;28;20121;-69
2022/01/07 07:24:46;;;;;;;7.25;2.33;;;2.20;84.50;;;;;;5009837;28;20419;-72
2022/01/07 07:27:13;;;;;;;7.22;1.90;;;2.30;84.50;;;;;;5007987;28;20117;-70
2022/01/07 07:29:41;;;;;;;7.45;2.90;;;2.30;84.50;;;;;;5009016;28;20068;-70
2022/01/07 07:32:10;;;;;;;6.95;2.88;;;2.30;84.50;;;;;;5009656;28;20073;-71
2022/01/07 07:34:59;;;;;;;8.30;2.45;;;2.30;84.50;;;;;;5009002;28;20046;-71
2022/01/07 07:37:26;;;;;;;7.95;2.47;;;2.30;84.50;;;;;;5010759;28;20080;-72
2022/01/07 07:39:53;;;;;;;7.72;2.50;;;2.40;84.50;;;;;;5008211;28;20496;-70
2022/01/07 07:42:20;;;;;;;4.25;2.15;;;2.40;84.50;;;;;;5009137;28;20046;-71
2022/01/07 07:44:52;;;;;;;;;;;2.40;84.40;;;;;;4990781;28;20057;-73
2022/01/07 07:47:19;;;;;;;2.65;1.17;;;2.50;84.30;;;;;;5008097;28;19921;-72
2022/01/07 07:49:46;;;;;;;9.30;2.20;;;2.50;84.20;;;;;;5007248;28;20042;-72
2022/01/07 07:52:14;;;;;;;10.63;1.98;;;2.60;84.10;;;;;;5007484;28;20065;-72
2022/01/07 07:54:41;;;;;;;7.68;2.47;;;2.60;84.10;;;;;;5007258;28;20578;-72
2022/01/07 07:57:08;;;;;;;4.93;2.55;;;2.60;84.20;;;;;;5007349;28;20052;-71
2022/01/07 07:59:35;;;;;;;4.15;1.48;;;2.60;84.10;;;;;;5008088;28;20160;-71
2022/01/07 08:02:05;;;;;;;4.07;2.22;;;2.70;84.30;;;;;;5004390;28;20546;-72
2022/01/07 08:04:32;;;;;;;5.28;1.42;;;2.60;84.30;;;;;;5006823;28;20121;-71
2022/01/07 08:06:59;;;;;;;6.45;1.95;;;2.60;84.40;;;;;;5007468;28;20044;-72
2022/01/07 08:09:26;;;;;;;4.90;2.42;;;2.70;84.60;;;;;;5006855;28;20033;-71
2022/01/07 08:12:04;;;;;;;3.75;1.40;;;2.70;84.70;;;;;;5007196;28;20141;-71
2022/01/07 08:17:18;;;;;;;5.00;2.03;;;2.60;84.70;;;;;;5006307;28;20042;-73
2022/01/07 08:19:45;;;;;;;2.95;1.70;;;2.70;84.70;;;;;;5007401;28;20053;-74
2022/01/07 08:22:12;;;;;;;7.75;2.83;;;2.70;84.70;;;;;;5007135;28;20140;-70
2022/01/07 08:24:40;;;;;;;4.03;1.60;;;2.70;84.60;;;;;;5009364;28;20053;-73
2022/01/07 08:27:07;;;;;;;3.95;1.83;;;2.70;84.40;;;;;;5008672;28;20077;-72
2022/01/07 08:29:36;;;;;;;5.22;1.90;;;2.70;84.50;;;;;;5008862;28;20121;-71
2022/01/07 08:34:57;;;;;;;4.72;1.83;;;2.80;84.50;;;;;;5008997;28;20049;-71
2022/01/07 08:37:27;;;;;;;9.60;2.40;;;2.80;84.60;;;;;;5008903;28;20061;-72
2022/01/07 08:39:54;;;;;;;3.85;1.95;;;2.70;84.70;;;;;;5008467;28;20045;-71
2022/01/07 08:42:22;;;;;;;6.47;2.25;;;2.80;84.80;;;;;;5009051;28;20061;-72
2022/01/07 08:44:51;;;;;;;3.53;1.80;;;2.80;84.90;;;;;;5008759;28;20046;-71
2022/01/07 08:47:19;;;;;;;5.80;1.80;;;2.70;85.00;;;;;;5008350;28;20046;-73
2022/01/07 08:49:46;;;;;;;6.72;1.92;;;2.70;85.10;;;;;;5008112;28;20500;-73
2022/01/07 08:52:15;;;;;;;4.47;2.10;;;2.70;85.20;;;;;;5009185;28;20137;-73
2022/01/07 08:54:42;;;;;;;5.78;2.40;;;2.70;85.40;;;;;;5007890;28;20084;-72
2022/01/07 08:57:09;;;;;;;6.50;2.20;;;2.70;85.40;;;;;;5007918;28;20498;-72
2022/01/07 08:59:36;;;;;;;4.60;2.22;;;2.70;85.40;;;;;;5010925;28;20042;-71
2022/01/07 09:02:04;;;;;;;4.32;2.15;;;2.70;85.60;;;;;;5010576;28;20056;-72
2022/01/07 09:04:31;;;;;;;5.00;2.30;;;2.70;85.70;;;;;;5011990;28;20057;-71
2022/01/07 09:06:58;;;;;;;6.15;2.53;;;2.70;85.80;;;;;;5011877;28;20502;-71
2022/01/07 09:09:26;;;;;;;3.67;1.95;;;2.70;85.70;;;;;;5011344;28;20407;-72
2022/01/07 09:11:54;;;;;;;5.47;2.13;;;2.70;85.80;;;;;;5010959;28;20061;-71
2022/01/07 09:14:21;;;;;;;7.65;2.67;;;2.70;85.80;;;;;;5010899;28;20045;-71
2022/01/07 09:16:48;;;;;;;4.32;2.10;;;2.70;85.90;;;;;;5011771;28;20042;-73
2022/01/07 09:19:15;;;;;;;3.85;1.90;;;2.70;85.90;;;;;;5011513;28;20128;-71
2022/01/07 09:21:42;;;;;;;4.90;1.90;;;2.70;85.90;;;;;;5011593;28;20125;-72
2022/01/07 09:24:09;;;;;;;5.75;2.15;;;2.70;85.90;;;;;;5010887;28;20139;-72
2022/01/07 09:26:37;;;;;;;5.05;1.98;;;2.70;86.00;;;;;;5009382;28;20041;-72
2022/01/07 09:29:04;;;;;;;3.97;1.67;;;2.70;86.00;;;;;;5009615;28;20456;-72
2022/01/07 09:31:33;;;;;;;4.22;2.05;;;2.60;86.00;;;;;;5010362;28;20049;-72
2022/01/07 09:34:00;;;;;;;6.65;2.22;;;2.60;86.00;;;;;;5009896;28;20510;-71
2022/01/07 09:36:31;;;;;;;5.47;3.03;;;2.60;86.10;;;;;;5009645;28;20049;-72
2022/01/07 09:38:58;;;;;;;5.00;2.10;;;2.60;86.10;;;;;;5010761;28;20128;-72
2022/01/07 09:41:26;;;;;;;4.35;2.40;;;2.60;86.20;;;;;;5009883;28;20065;-72
2022/01/07 09:43:54;;;;;;;6.50;2.70;;;2.60;86.20;;;;;;5010218;28;20073;-72
2022/01/07 09:46:21;;;;;;;9.77;3.60;;;2.60;86.30;;;;;;5008865;28;20080;-71
2022/01/07 09:48:48;;;;;;;8.52;3.30;;;2.60;86.30;;;;;;5009669;28;20057;-72
2022/01/07 09:51:16;;;;;;;13.82;4.82;;;2.70;86.30;;;;;;5008977;28;20464;-71
2022/01/07 09:53:43;;;;;;;11.40;4.45;;;2.70;86.20;;;;;;5009369;28;20495;-71
2022/01/07 09:56:11;;;;;;;9.45;3.22;;;2.70;86.30;;;;;;5009837;28;20141;-72
2022/01/07 09:58:38;;;;;;;8.40;2.90;;;2.70;86.20;;;;;;5009871;28;20046;-72
2022/01/07 10:01:09;;;;;;;7.57;2.30;;;2.70;86.20;;;;;;5006463;28;20054;-71
2022/01/07 10:03:36;;;;;;;;;;;2.70;86.10;;;;;;5010040;28;20496;-72
2022/01/07 10:06:15;;;;;;;3.33;1.65;;;2.70;86.20;;;;;;5011431;28;20321;-72
2022/01/07 10:08:42;;;;;;;4.03;1.77;;;2.70;86.20;;;;;;5011701;28;20488;-73
2022/01/07 10:11:15;;;;;;;7.82;2.00;;;2.70;86.20;;;;;;5010410;28;20468;-71
2022/01/07 10:13:44;;;;;;;4.03;1.35;;;2.70;86.20;;;;;;5012761;28;20046;-72
2022/01/07 10:16:17;;;;;;;3.63;1.20;;;2.70;86.30;;;;;;5011249;28;20145;-71
2022/01/07 10:18:45;;;;;;;4.55;1.70;;;2.70;86.20;;;;;;5010865;28;20412;-71
2022/01/07 10:21:12;;;;;;;3.00;2.05;;;2.70;86.20;;;;;;5009401;28;20388;-73
2022/01/07 10:23:40;;;;;;;3.22;1.25;;;2.70;86.20;;;;;;5010521;28;20034;-72
2022/01/07 10:26:15;;;;;;;3.28;1.30;;;2.70;86.20;;;;;;5010592;28;20038;-72
2022/01/07 10:28:42;;;;;;;3.75;1.63;;;2.70;86.20;;;;;;5009712;28;20514;-72
2022/01/07 10:31:10;;;;;;;2.85;1.45;;;2.70;86.20;;;;;;5010939;28;20120;-72
2022/01/07 10:33:40;;;;;;;4.28;2.00;;;2.70;86.20;;;;;;5010947;28;20053;-73
2022/01/07 10:36:18;;;;;;;4.00;2.30;;;2.80;86.10;;;;;;5011463;28;20050;-71
2022/01/07 10:38:53;;;;;;;3.83;1.45;;;2.80;86.00;;;;;;5009553;28;20054;-73
2022/01/07 10:41:21;;;;;;;2.83;1.45;;;2.80;86.10;;;;;;5009805;28;20172;-74
2022/01/07 10:43:51;;;;;;;4.85;1.83;;;2.80;86.10;;;;;;5011135;28;20065;-73
2022/01/07 10:46:24;;;;;;;4.05;1.65;;;2.70;86.10;;;;;;5010016;28;20056;-73
2022/01/07 10:48:55;;;;;;;9.15;2.22;;;2.70;86.20;;;;;;5010823;28;20053;-73
2022/01/07 10:51:24;;;;;;;5.35;2.40;;;2.80;86.10;;;;;;5010708;28;20056;-72
2022/01/07 10:53:53;;;;;;;7.72;2.30;;;2.70;86.20;;;;;;5008543;28;20054;-72
2022/01/07 10:56:23;;;;;;;5.35;2.35;;;2.70;86.20;;;;;;5010127;28;20553;-73
2022/01/07 10:58:59;;;;;;;4.45;2.85;;;2.70;86.20;;;;;;5010274;28;20034;-73
2022/01/07 11:01:40;;;;;;;4.93;2.00;;;2.70;86.30;;;;;;5008565;28;20046;-73
2022/01/07 11:04:11;;;;;;;2.88;1.08;;;2.70;86.30;;;;;;5009341;28;20038;-73
2022/01/07 11:06:40;;;;;;;4.50;1.67;;;2.70;86.30;;;;;;5005700;28;20038;-73
2022/01/07 11:09:12;;;;;;;4.28;1.67;;;2.80;86.30;;;;;;5007209;28;20476;-74
2022/01/07 11:11:50;;;;;;;4.00;1.67;;;2.80;86.20;;;;;;5006766;28;20057;-72
2022/01/07 11:14:20;;;;;;;3.55;1.40;;;2.80;86.20;;;;;;5008297;28;20108;-73
2022/01/07 11:16:48;;;;;;;3.67;1.35;;;2.80;86.20;;;;;;5007858;28;20152;-72
2022/01/07 11:19:23;;;;;;;2.88;1.48;;;2.80;86.20;;;;;;5007824;28;20046;-72
2022/01/07 11:21:52;;;;;;;2.50;1.20;;;2.80;86.20;;;;;;5007673;28;20089;-74
2022/01/07 11:24:40;;;;;;;2.85;1.30;;;2.80;86.20;;;;;;5006387;28;20050;-74
2022/01/07 11:27:09;;;;;;;1.55;0.90;;;2.80;86.10;;;;;;5007114;28;20038;-72
2022/01/07 11:29:38;;;;;;;3.40;1.02;;;2.80;86.10;;;;;;5007796;28;20046;-74
2022/01/07 11:32:29;;;;;;;2.80;1.23;;;2.80;86.10;;;;;;5007124;28;20121;-73
2022/01/07 11:35:18;;;;;;;5.15;1.60;;;2.80;86.10;;;;;;5009225;28;20514;-73
2022/01/07 11:37:48;;;;;;;2.67;1.15;;;2.80;86.10;;;;;;5007124;28;20131;-73
2022/01/07 11:40:44;;;;;;;3.08;1.27;;;2.90;86.10;;;;;;5005403;28;20073;-73
2022/01/07 11:43:30;;;;;;;2.55;1.10;;;2.90;86.00;;;;;;5008043;28;20540;-73
2022/01/07 11:45:57;;;;;;;4.50;1.20;;;2.90;85.90;;;;;;5008990;28;20046;-74
2022/01/07 11:48:26;;;;;;;5.45;1.63;;;2.90;85.90;;;;;;5008735;28;20125;-74
2022/01/07 11:51:13;;;;;;;3.05;1.20;;;2.90;86.00;;;;;;5009214;28;20034;-73
2022/01/07 11:54:20;;;;;;;4.13;1.45;;;2.90;85.90;;;;;;5008874;28;20436;-73
2022/01/07 11:56:47;;;;;;;2.75;1.13;;;2.90;85.90;;;;;;4935408;29;20052;-75
2022/01/07 11:59:27;;;;;;;5.72;2.17;;;3.00;85.90;;;;;;4938502;29;20489;-74
2022/01/07 12:02:04;;;;;;;2.45;0.93;;;3.00;85.90;;;;;;4975714;28;20050;-73
2022/01/07 12:04:33;;;;;;;5.13;1.38;;;3.00;85.80;;;;;;5007708;28;20139;-73
2022/01/07 12:07:02;;;;;;;2.45;1.00;;;3.00;85.70;;;;;;4990566;28;20459;-73
2022/01/07 12:09:36;;;;;;;3.97;1.27;;;3.00;85.70;;;;;;5008529;28;20050;-72
2022/01/07 12:12:05;;;;;;;3.88;1.77;;;3.00;85.80;;;;;;5008514;28;20056;-75
2022/01/07 12:14:39;;;;;;;2.55;1.17;;;3.00;85.90;;;;;;5008632;28;20488;-72
2022/01/07 12:17:11;;;;;;;3.13;2.03;;;3.10;85.90;;;;;;5007164;28;20632;-73
2022/01/07 12:20:20;;;;;;;3.92;1.45;;;3.00;86.00;;;;;;5008466;28;20041;-73
2022/01/07 12:22:55;;;;;;;5.47;1.40;;;3.00;86.00;;;;;;5007680;28;20042;-73
2022/01/07 12:25:24;;;;;;;3.25;1.50;;;3.00;85.90;;;;;;5008389;28;20133;-71
2022/01/07 12:28:08;;;;;;;2.35;1.30;;;3.10;86.00;;;;;;5008974;28;20042;-71
2022/01/07 12:30:35;;;;;;;3.60;1.73;;;3.10;86.00;;;;;;5008497;28;20038;-71
2022/01/07 12:33:10;;;;;;;3.70;1.50;;;3.10;86.00;;;;;;5009051;28;20052;-73
2022/01/07 12:35:37;;;;;;;1.70;0.95;;;3.10;86.00;;;;;;5012145;28;20052;-72
2022/01/07 12:38:19;;;;;;;3.80;1.77;;;3.10;85.90;;;;;;5012778;28;20076;-71
2022/01/07 12:40:55;;;;;;;3.38;1.30;;;3.10;85.90;;;;;;5013190;28;20060;-73
2022/01/07 12:43:23;;;;;;;4.10;1.48;;;3.10;85.90;;;;;;5012295;28;20050;-72
2022/01/07 12:45:59;;;;;;;6.10;1.95;;;3.10;85.80;;;;;;5011641;28;20172;-72
2022/01/07 12:48:34;;;;;;;3.45;1.42;;;3.10;85.80;;;;;;5009150;28;20076;-71
2022/01/07 12:51:02;;;;;;;4.18;1.85;;;3.10;85.80;;;;;;5010858;28;20080;-72
2022/01/07 12:53:29;;;;;;;8.88;2.78;;;3.10;85.80;;;;;;5010707;28;20125;-73
2022/01/07 12:56:27;;;;;;;8.20;2.47;;;3.10;85.80;;;;;;5011166;28;20133;-73
2022/01/07 12:58:54;;;;;;;6.80;3.58;;;3.10;85.70;;;;;;5008990;28;20048;-72
2022/01/07 13:01:29;;;;;;;9.63;5.00;;;3.10;85.60;;;;;;5008386;28;20148;-73
2022/01/07 13:04:05;;;;;;;8.48;5.65;;;3.10;85.50;;;;;;5010089;28;20419;-73
2022/01/07 13:06:32;;;;;;;9.85;6.45;;;3.20;85.40;;;;;;5008372;28;20142;-73
2022/01/07 13:08:59;;;;;;;8.60;4.88;;;3.20;85.30;;;;;;5010257;28;20077;-72
2022/01/07 13:11:29;;;;;;;11.02;5.65;;;3.20;85.30;;;;;;5009619;28;20056;-72
2022/01/07 13:14:04;;;;;;;13.10;7.18;;;3.20;85.40;;;;;;5009140;28;20042;-71